Аэропорт: Нариманово. Астрахань

ICAO: URWA

METAR:
2020-10-19 22:30:00
URWA 192230Z 31004MPS CAVOK 12/09 Q1013 R09/010070 NOSIG RMK QFE762/1016
METAR:
2020-10-19 20:00:00
TAF URWA 192000Z 1921/2006 28003G08MPS 9999 SCT030CB TEMPO 1923/2006 33007G13MPS 6000 -SHRA SCT015 BKN020CB